sensor_id;sensor_type;location;lat;lon;timestamp;P1;durP1;ratioP1;P2;durP2;ratioP2
74320;SDS011;62738;45.772;4.804;2023-09-19T00:02:05;5.88;;;2.72;;
74320;SDS011;62738;45.772;4.804;2023-09-19T00:04:32;7.47;;;2.90;;
74320;SDS011;62738;45.772;4.804;2023-09-19T00:06:59;5.78;;;2.45;;
74320;SDS011;62738;45.772;4.804;2023-09-19T00:09:29;6.53;;;2.70;;
74320;SDS011;62738;45.772;4.804;2023-09-19T00:11:56;6.28;;;2.30;;
74320;SDS011;62738;45.772;4.804;2023-09-19T00:14:24;5.68;;;2.55;;
74320;SDS011;62738;45.772;4.804;2023-09-19T00:16:51;4.85;;;2.63;;
74320;SDS011;62738;45.772;4.804;2023-09-19T00:19:18;7.65;;;2.40;;
74320;SDS011;62738;45.772;4.804;2023-09-19T00:21:47;6.53;;;2.40;;
74320;SDS011;62738;45.772;4.804;2023-09-19T00:24:13;4.88;;;2.38;;
74320;SDS011;62738;45.772;4.804;2023-09-19T00:26:40;7.18;;;2.75;;
74320;SDS011;62738;45.772;4.804;2023-09-19T00:29:07;6.75;;;2.70;;
74320;SDS011;62738;45.772;4.804;2023-09-19T00:31:35;6.30;;;2.72;;
74320;SDS011;62738;45.772;4.804;2023-09-19T00:34:04;8.32;;;2.72;;
74320;SDS011;62738;45.772;4.804;2023-09-19T00:36:30;7.50;;;2.97;;
74320;SDS011;62738;45.772;4.804;2023-09-19T00:38:57;5.05;;;2.47;;
74320;SDS011;62738;45.772;4.804;2023-09-19T00:41:24;5.82;;;2.72;;
74320;SDS011;62738;45.772;4.804;2023-09-19T00:43:51;7.18;;;2.85;;
74320;SDS011;62738;45.772;4.804;2023-09-19T00:46:18;4.60;;;2.50;;
74320;SDS011;62738;45.772;4.804;2023-09-19T00:48:44;6.97;;;2.53;;
74320;SDS011;62738;45.772;4.804;2023-09-19T00:51:12;9.88;;;2.40;;
74320;SDS011;62738;45.772;4.804;2023-09-19T00:53:40;7.05;;;2.95;;
74320;SDS011;62738;45.772;4.804;2023-09-19T00:56:12;4.65;;;2.60;;
74320;SDS011;62738;45.772;4.804;2023-09-19T00:58:40;8.13;;;2.90;;
74320;SDS011;62738;45.772;4.804;2023-09-19T01:03:48;5.15;;;2.72;;
74320;SDS011;62738;45.772;4.804;2023-09-19T01:06:16;7.20;;;2.60;;
74320;SDS011;62738;45.772;4.804;2023-09-19T01:08:44;6.25;;;2.63;;
74320;SDS011;62738;45.772;4.804;2023-09-19T01:11:28;4.93;;;2.00;;
74320;SDS011;62738;45.772;4.804;2023-09-19T01:16:50;5.32;;;2.00;;
74320;SDS011;62738;45.772;4.804;2023-09-19T01:22:15;5.20;;;1.85;;
74320;SDS011;62738;45.772;4.804;2023-09-19T01:24:54;3.92;;;1.88;;
74320;SDS011;62738;45.772;4.804;2023-09-19T01:27:59;4.10;;;1.58;;
74320;SDS011;62738;45.772;4.804;2023-09-19T01:30:40;5.35;;;1.70;;
74320;SDS011;62738;45.772;4.804;2023-09-19T01:33:10;3.88;;;1.50;;
74320;SDS011;62738;45.772;4.804;2023-09-19T01:35:41;4.95;;;2.05;;
74320;SDS011;62738;45.772;4.804;2023-09-19T01:38:07;3.85;;;2.08;;
74320;SDS011;62738;45.772;4.804;2023-09-19T01:40:43;4.32;;;1.70;;
74320;SDS011;62738;45.772;4.804;2023-09-19T01:43:27;6.18;;;1.65;;
74320;SDS011;62738;45.772;4.804;2023-09-19T01:46:19;2.75;;;1.58;;
74320;SDS011;62738;45.772;4.804;2023-09-19T01:48:56;3.50;;;1.30;;
74320;SDS011;62738;45.772;4.804;2023-09-19T01:51:33;2.90;;;1.02;;
74320;SDS011;62738;45.772;4.804;2023-09-19T01:54:10;2.80;;;1.10;;
74320;SDS011;62738;45.772;4.804;2023-09-19T01:59:48;2.67;;;1.00;;
74320;SDS011;62738;45.772;4.804;2023-09-19T02:02:20;1.83;;;0.82;;
74320;SDS011;62738;45.772;4.804;2023-09-19T02:04:49;3.15;;;1.10;;
74320;SDS011;62738;45.772;4.804;2023-09-19T02:07:16;3.83;;;0.95;;
74320;SDS011;62738;45.772;4.804;2023-09-19T02:09:43;3.08;;;0.93;;
74320;SDS011;62738;45.772;4.804;2023-09-19T02:12:10;2.63;;;0.80;;
74320;SDS011;62738;45.772;4.804;2023-09-19T02:14:37;3.75;;;0.82;;
74320;SDS011;62738;45.772;4.804;2023-09-19T02:17:04;1.80;;;0.90;;
74320;SDS011;62738;45.772;4.804;2023-09-19T02:19:33;4.18;;;0.70;;
74320;SDS011;62738;45.772;4.804;2023-09-19T02:22:00;3.28;;;0.70;;
74320;SDS011;62738;45.772;4.804;2023-09-19T02:24:29;2.05;;;0.73;;
74320;SDS011;62738;45.772;4.804;2023-09-19T02:26:56;2.10;;;0.70;;
74320;SDS011;62738;45.772;4.804;2023-09-19T02:29:23;3.30;;;0.90;;
74320;SDS011;62738;45.772;4.804;2023-09-19T02:31:51;2.05;;;0.80;;
74320;SDS011;62738;45.772;4.804;2023-09-19T02:34:18;0.93;;;0.60;;
74320;SDS011;62738;45.772;4.804;2023-09-19T02:36:45;2.72;;;0.80;;
74320;SDS011;62738;45.772;4.804;2023-09-19T02:39:13;2.28;;;0.90;;
74320;SDS011;62738;45.772;4.804;2023-09-19T02:41:40;1.73;;;0.65;;
74320;SDS011;62738;45.772;4.804;2023-09-19T02:44:07;4.30;;;0.80;;
74320;SDS011;62738;45.772;4.804;2023-09-19T02:46:34;2.45;;;0.70;;
74320;SDS011;62738;45.772;4.804;2023-09-19T02:49:04;2.05;;;0.60;;
74320;SDS011;62738;45.772;4.804;2023-09-19T02:51:33;2.42;;;0.40;;
74320;SDS011;62738;45.772;4.804;2023-09-19T02:54:00;2.17;;;0.70;;
74320;SDS011;62738;45.772;4.804;2023-09-19T02:56:30;2.03;;;0.70;;
74320;SDS011;62738;45.772;4.804;2023-09-19T02:58:58;2.95;;;0.85;;
74320;SDS011;62738;45.772;4.804;2023-09-19T03:01:27;2.58;;;0.80;;
74320;SDS011;62738;45.772;4.804;2023-09-19T03:03:57;1.92;;;0.80;;
74320;SDS011;62738;45.772;4.804;2023-09-19T03:06:24;1.25;;;0.70;;
74320;SDS011;62738;45.772;4.804;2023-09-19T03:08:51;1.92;;;0.80;;
74320;SDS011;62738;45.772;4.804;2023-09-19T03:11:18;2.03;;;0.75;;
74320;SDS011;62738;45.772;4.804;2023-09-19T03:13:52;1.50;;;0.70;;
74320;SDS011;62738;45.772;4.804;2023-09-19T03:16:20;2.25;;;0.65;;
74320;SDS011;62738;45.772;4.804;2023-09-19T03:18:49;3.53;;;0.68;;
74320;SDS011;62738;45.772;4.804;2023-09-19T03:21:16;2.22;;;0.70;;
74320;SDS011;62738;45.772;4.804;2023-09-19T03:23:43;2.20;;;0.63;;
74320;SDS011;62738;45.772;4.804;2023-09-19T03:26:13;2.67;;;0.68;;
74320;SDS011;62738;45.772;4.804;2023-09-19T03:28:42;3.38;;;0.60;;
74320;SDS011;62738;45.772;4.804;2023-09-19T03:31:09;2.30;;;0.80;;
74320;SDS011;62738;45.772;4.804;2023-09-19T03:33:37;2.72;;;0.75;;
74320;SDS011;62738;45.772;4.804;2023-09-19T03:36:04;1.15;;;0.70;;
74320;SDS011;62738;45.772;4.804;2023-09-19T03:38:32;2.95;;;0.70;;
74320;SDS011;62738;45.772;4.804;2023-09-19T03:41:01;2.35;;;0.60;;
74320;SDS011;62738;45.772;4.804;2023-09-19T03:43:28;2.13;;;0.70;;
74320;SDS011;62738;45.772;4.804;2023-09-19T03:45:55;3.28;;;0.77;;
74320;SDS011;62738;45.772;4.804;2023-09-19T03:48:21;2.42;;;0.60;;
74320;SDS011;62738;45.772;4.804;2023-09-19T03:50:49;3.75;;;0.60;;
74320;SDS011;62738;45.772;4.804;2023-09-19T03:53:16;0.63;;;0.50;;
74320;SDS011;62738;45.772;4.804;2023-09-19T03:55:44;1.60;;;0.50;;
74320;SDS011;62738;45.772;4.804;2023-09-19T03:58:11;1.67;;;0.52;;
74320;SDS011;62738;45.772;4.804;2023-09-19T04:00:38;3.38;;;0.60;;
74320;SDS011;62738;45.772;4.804;2023-09-19T04:03:05;1.27;;;0.40;;
74320;SDS011;62738;45.772;4.804;2023-09-19T04:05:33;1.73;;;0.50;;
74320;SDS011;62738;45.772;4.804;2023-09-19T04:08:00;1.38;;;0.70;;
74320;SDS011;62738;45.772;4.804;2023-09-19T04:10:26;2.92;;;0.68;;
74320;SDS011;62738;45.772;4.804;2023-09-19T04:12:54;3.33;;;0.68;;
74320;SDS011;62738;45.772;4.804;2023-09-19T04:15:21;3.08;;;1.48;;
74320;SDS011;62738;45.772;4.804;2023-09-19T04:17:51;5.13;;;0.90;;
74320;SDS011;62738;45.772;4.804;2023-09-19T04:20:18;4.82;;;0.88;;
74320;SDS011;62738;45.772;4.804;2023-09-19T04:22:51;2.13;;;0.70;;
74320;SDS011;62738;45.772;4.804;2023-09-19T04:25:18;2.45;;;0.68;;
74320;SDS011;62738;45.772;4.804;2023-09-19T04:27:45;1.65;;;0.73;;
74320;SDS011;62738;45.772;4.804;2023-09-19T04:30:12;2.70;;;0.60;;
74320;SDS011;62738;45.772;4.804;2023-09-19T04:32:40;4.75;;;0.90;;
74320;SDS011;62738;45.772;4.804;2023-09-19T04:35:08;3.00;;;0.80;;
74320;SDS011;62738;45.772;4.804;2023-09-19T04:37:39;3.75;;;0.70;;
74320;SDS011;62738;45.772;4.804;2023-09-19T04:40:08;1.73;;;0.60;;
74320;SDS011;62738;45.772;4.804;2023-09-19T04:42:44;1.52;;;0.80;;
74320;SDS011;62738;45.772;4.804;2023-09-19T04:45:12;2.55;;;0.75;;
74320;SDS011;62738;45.772;4.804;2023-09-19T04:47:39;2.72;;;0.65;;
74320;SDS011;62738;45.772;4.804;2023-09-19T04:50:09;2.45;;;0.65;;
74320;SDS011;62738;45.772;4.804;2023-09-19T04:52:40;2.75;;;0.80;;
74320;SDS011;62738;45.772;4.804;2023-09-19T04:55:09;1.95;;;0.63;;
74320;SDS011;62738;45.772;4.804;2023-09-19T04:57:44;1.88;;;0.80;;
74320;SDS011;62738;45.772;4.804;2023-09-19T05:00:15;2.03;;;0.70;;
74320;SDS011;62738;45.772;4.804;2023-09-19T05:02:46;2.15;;;0.82;;
74320;SDS011;62738;45.772;4.804;2023-09-19T05:05:18;3.55;;;0.70;;
74320;SDS011;62738;45.772;4.804;2023-09-19T05:07:45;2.05;;;0.75;;
74320;SDS011;62738;45.772;4.804;2023-09-19T05:10:13;1.83;;;0.75;;
74320;SDS011;62738;45.772;4.804;2023-09-19T05:12:40;2.15;;;0.70;;
74320;SDS011;62738;45.772;4.804;2023-09-19T05:15:08;2.58;;;0.88;;
74320;SDS011;62738;45.772;4.804;2023-09-19T05:17:35;1.95;;;0.80;;
74320;SDS011;62738;45.772;4.804;2023-09-19T05:20:02;2.15;;;0.80;;
74320;SDS011;62738;45.772;4.804;2023-09-19T05:22:57;3.25;;;0.80;;
74320;SDS011;62738;45.772;4.804;2023-09-19T05:25:40;2.13;;;0.80;;
74320;SDS011;62738;45.772;4.804;2023-09-19T05:28:08;3.10;;;0.90;;
74320;SDS011;62738;45.772;4.804;2023-09-19T05:30:38;2.83;;;0.73;;
74320;SDS011;62738;45.772;4.804;2023-09-19T05:33:12;3.22;;;0.90;;
74320;SDS011;62738;45.772;4.804;2023-09-19T05:35:39;3.58;;;0.80;;
74320;SDS011;62738;45.772;4.804;2023-09-19T05:38:08;3.20;;;0.75;;
74320;SDS011;62738;45.772;4.804;2023-09-19T05:40:39;2.88;;;0.73;;
74320;SDS011;62738;45.772;4.804;2023-09-19T05:43:11;2.17;;;1.10;;
74320;SDS011;62738;45.772;4.804;2023-09-19T05:45:40;5.47;;;1.15;;
74320;SDS011;62738;45.772;4.804;2023-09-19T05:48:11;2.67;;;1.00;;
74320;SDS011;62738;45.772;4.804;2023-09-19T05:50:39;2.15;;;1.00;;
74320;SDS011;62738;45.772;4.804;2023-09-19T05:53:06;6.07;;;1.10;;
74320;SDS011;62738;45.772;4.804;2023-09-19T05:55:33;2.92;;;0.95;;
74320;SDS011;62738;45.772;4.804;2023-09-19T05:58:00;3.45;;;1.17;;
74320;SDS011;62738;45.772;4.804;2023-09-19T06:00:26;2.42;;;1.10;;
74320;SDS011;62738;45.772;4.804;2023-09-19T06:02:55;3.35;;;0.90;;
74320;SDS011;62738;45.772;4.804;2023-09-19T06:05:24;2.90;;;1.10;;
74320;SDS011;62738;45.772;4.804;2023-09-19T06:07:53;3.30;;;0.95;;
74320;SDS011;62738;45.772;4.804;2023-09-19T06:10:20;1.92;;;0.95;;
74320;SDS011;62738;45.772;4.804;2023-09-19T06:12:49;7.28;;;1.52;;
74320;SDS011;62738;45.772;4.804;2023-09-19T06:15:16;3.75;;;0.98;;
74320;SDS011;62738;45.772;4.804;2023-09-19T06:17:49;5.45;;;0.90;;
74320;SDS011;62738;45.772;4.804;2023-09-19T06:20:17;2.72;;;1.00;;
74320;SDS011;62738;45.772;4.804;2023-09-19T06:22:44;3.95;;;1.00;;
74320;SDS011;62738;45.772;4.804;2023-09-19T06:25:13;3.50;;;1.10;;
74320;SDS011;62738;45.772;4.804;2023-09-19T06:27:49;3.15;;;0.80;;
74320;SDS011;62738;45.772;4.804;2023-09-19T06:30:22;4.53;;;1.10;;
74320;SDS011;62738;45.772;4.804;2023-09-19T06:32:58;5.35;;;1.30;;
74320;SDS011;62738;45.772;4.804;2023-09-19T06:35:27;5.13;;;1.48;;
74320;SDS011;62738;45.772;4.804;2023-09-19T06:37:56;1.83;;;0.90;;
74320;SDS011;62738;45.772;4.804;2023-09-19T06:40:25;2.45;;;0.90;;
74320;SDS011;62738;45.772;4.804;2023-09-19T06:42:52;2.28;;;0.93;;
74320;SDS011;62738;45.772;4.804;2023-09-19T06:45:19;4.68;;;1.00;;
74320;SDS011;62738;45.772;4.804;2023-09-19T06:47:51;1.77;;;0.80;;
74320;SDS011;62738;45.772;4.804;2023-09-19T06:52:47;4.50;;;1.05;;
74320;SDS011;62738;45.772;4.804;2023-09-19T06:55:16;3.03;;;1.20;;
74320;SDS011;62738;45.772;4.804;2023-09-19T06:57:47;2.83;;;0.80;;
74320;SDS011;62738;45.772;4.804;2023-09-19T07:00:15;3.55;;;1.17;;
74320;SDS011;62738;45.772;4.804;2023-09-19T07:05:12;5.28;;;1.20;;
74320;SDS011;62738;45.772;4.804;2023-09-19T07:07:38;3.65;;;1.10;;
74320;SDS011;62738;45.772;4.804;2023-09-19T07:10:06;2.63;;;1.00;;
74320;SDS011;62738;45.772;4.804;2023-09-19T07:12:36;5.97;;;1.20;;
74320;SDS011;62738;45.772;4.804;2023-09-19T07:15:03;1.92;;;1.00;;
74320;SDS011;62738;45.772;4.804;2023-09-19T07:17:32;3.03;;;1.08;;
74320;SDS011;62738;45.772;4.804;2023-09-19T07:19:59;4.78;;;1.27;;
74320;SDS011;62738;45.772;4.804;2023-09-19T07:22:26;3.50;;;1.00;;
74320;SDS011;62738;45.772;4.804;2023-09-19T07:24:53;2.15;;;1.08;;
74320;SDS011;62738;45.772;4.804;2023-09-19T07:27:20;3.55;;;0.95;;
74320;SDS011;62738;45.772;4.804;2023-09-19T07:29:46;2.75;;;0.90;;
74320;SDS011;62738;45.772;4.804;2023-09-19T07:34:44;4.78;;;1.55;;
74320;SDS011;62738;45.772;4.804;2023-09-19T07:37:11;4.20;;;0.95;;
74320;SDS011;62738;45.772;4.804;2023-09-19T07:39:39;6.00;;;2.05;;
74320;SDS011;62738;45.772;4.804;2023-09-19T07:42:07;4.50;;;1.27;;
74320;SDS011;62738;45.772;4.804;2023-09-19T07:44:37;12.88;;;3.08;;
74320;SDS011;62738;45.772;4.804;2023-09-19T07:47:03;6.03;;;1.80;;
74320;SDS011;62738;45.772;4.804;2023-09-19T07:49:30;7.50;;;2.00;;
74320;SDS011;62738;45.772;4.804;2023-09-19T07:51:57;3.33;;;1.20;;
74320;SDS011;62738;45.772;4.804;2023-09-19T07:54:25;3.72;;;1.10;;
74320;SDS011;62738;45.772;4.804;2023-09-19T07:56:53;4.85;;;1.52;;
74320;SDS011;62738;45.772;4.804;2023-09-19T07:59:20;5.32;;;0.98;;
74320;SDS011;62738;45.772;4.804;2023-09-19T08:01:47;3.80;;;1.25;;
74320;SDS011;62738;45.772;4.804;2023-09-19T08:04:14;4.97;;;1.40;;
74320;SDS011;62738;45.772;4.804;2023-09-19T08:06:41;5.88;;;1.40;;
74320;SDS011;62738;45.772;4.804;2023-09-19T08:09:08;4.13;;;1.25;;
74320;SDS011;62738;45.772;4.804;2023-09-19T08:11:37;3.22;;;1.10;;
74320;SDS011;62738;45.772;4.804;2023-09-19T08:14:03;4.13;;;1.20;;
74320;SDS011;62738;45.772;4.804;2023-09-19T08:16:32;4.40;;;1.10;;
74320;SDS011;62738;45.772;4.804;2023-09-19T08:18:59;3.10;;;1.20;;
74320;SDS011;62738;45.772;4.804;2023-09-19T08:21:26;2.25;;;0.98;;
74320;SDS011;62738;45.772;4.804;2023-09-19T08:23:55;2.85;;;1.10;;
74320;SDS011;62738;45.772;4.804;2023-09-19T08:26:23;6.32;;;1.30;;
74320;SDS011;62738;45.772;4.804;2023-09-19T08:28:50;4.35;;;1.40;;
74320;SDS011;62738;45.772;4.804;2023-09-19T08:31:17;3.33;;;1.17;;
74320;SDS011;62738;45.772;4.804;2023-09-19T08:33:44;4.57;;;1.17;;
74320;SDS011;62738;45.772;4.804;2023-09-19T08:36:15;3.30;;;1.23;;
74320;SDS011;62738;45.772;4.804;2023-09-19T08:38:42;2.78;;;1.52;;
74320;SDS011;62738;45.772;4.804;2023-09-19T08:41:09;3.42;;;1.23;;
74320;SDS011;62738;45.772;4.804;2023-09-19T08:43:36;4.70;;;1.30;;
74320;SDS011;62738;45.772;4.804;2023-09-19T08:46:07;6.07;;;1.40;;
74320;SDS011;62738;45.772;4.804;2023-09-19T08:51:41;4.18;;;1.13;;
74320;SDS011;62738;45.772;4.804;2023-09-19T08:54:21;4.80;;;1.20;;
74320;SDS011;62738;45.772;4.804;2023-09-19T08:56:53;4.13;;;1.20;;
74320;SDS011;62738;45.772;4.804;2023-09-19T08:59:23;8.13;;;1.70;;
74320;SDS011;62738;45.772;4.804;2023-09-19T09:01:51;3.70;;;1.40;;
74320;SDS011;62738;45.772;4.804;2023-09-19T09:04:20;4.13;;;1.17;;
74320;SDS011;62738;45.772;4.804;2023-09-19T09:06:49;3.17;;;1.50;;
74320;SDS011;62738;45.772;4.804;2023-09-19T09:11:48;3.38;;;1.20;;
74320;SDS011;62738;45.772;4.804;2023-09-19T09:14:16;5.22;;;2.40;;
74320;SDS011;62738;45.772;4.804;2023-09-19T09:16:44;4.10;;;1.65;;
74320;SDS011;62738;45.772;4.804;2023-09-19T09:19:12;3.22;;;1.25;;
74320;SDS011;62738;45.772;4.804;2023-09-19T09:21:39;5.95;;;1.20;;
74320;SDS011;62738;45.772;4.804;2023-09-19T09:26:56;3.40;;;1.23;;
74320;SDS011;62738;45.772;4.804;2023-09-19T09:29:43;4.20;;;1.27;;
74320;SDS011;62738;45.772;4.804;2023-09-19T09:34:51;5.82;;;1.17;;
74320;SDS011;62738;45.772;4.804;2023-09-19T09:37:22;6.20;;;1.42;;
74320;SDS011;62738;45.772;4.804;2023-09-19T09:39:52;3.75;;;1.20;;
74320;SDS011;62738;45.772;4.804;2023-09-19T09:42:40;4.47;;;1.30;;
74320;SDS011;62738;45.772;4.804;2023-09-19T09:45:17;3.17;;;1.00;;
74320;SDS011;62738;45.772;4.804;2023-09-19T09:47:55;3.03;;;1.20;;
74320;SDS011;62738;45.772;4.804;2023-09-19T09:52:56;3.90;;;1.30;;
74320;SDS011;62738;45.772;4.804;2023-09-19T09:58:26;4.07;;;1.17;;
74320;SDS011;62738;45.772;4.804;2023-09-19T10:00:58;4.22;;;1.30;;
74320;SDS011;62738;45.772;4.804;2023-09-19T10:03:31;5.32;;;1.20;;
74320;SDS011;62738;45.772;4.804;2023-09-19T10:06:14;5.15;;;1.15;;
74320;SDS011;62738;45.772;4.804;2023-09-19T10:08:58;3.72;;;1.10;;
74320;SDS011;62738;45.772;4.804;2023-09-19T10:11:32;3.60;;;1.15;;
74320;SDS011;62738;45.772;4.804;2023-09-19T10:14:03;3.90;;;1.17;;
74320;SDS011;62738;45.772;4.804;2023-09-19T10:16:33;2.80;;;0.93;;
74320;SDS011;62738;45.772;4.804;2023-09-19T10:19:02;3.58;;;1.02;;
74320;SDS011;62738;45.772;4.804;2023-09-19T10:21:35;4.03;;;1.40;;
74320;SDS011;62738;45.772;4.804;2023-09-19T10:24:03;3.90;;;1.10;;
74320;SDS011;62738;45.772;4.804;2023-09-19T10:26:34;4.47;;;1.10;;
74320;SDS011;62738;45.772;4.804;2023-09-19T10:29:02;3.05;;;1.00;;
74320;SDS011;62738;45.772;4.804;2023-09-19T10:31:33;3.00;;;1.23;;
74320;SDS011;62738;45.772;4.804;2023-09-19T10:34:03;2.63;;;1.00;;
74320;SDS011;62738;45.772;4.804;2023-09-19T10:36:32;3.60;;;1.40;;
74320;SDS011;62738;45.772;4.804;2023-09-19T10:39:02;5.03;;;1.40;;
74320;SDS011;62738;45.772;4.804;2023-09-19T10:41:35;3.38;;;0.98;;
74320;SDS011;62738;45.772;4.804;2023-09-19T10:44:03;2.83;;;0.90;;
74320;SDS011;62738;45.772;4.804;2023-09-19T10:46:34;3.90;;;0.90;;
74320;SDS011;62738;45.772;4.804;2023-09-19T10:49:04;1.60;;;0.85;;
74320;SDS011;62738;45.772;4.804;2023-09-19T10:51:37;3.38;;;1.00;;
74320;SDS011;62738;45.772;4.804;2023-09-19T10:54:10;3.13;;;0.95;;
74320;SDS011;62738;45.772;4.804;2023-09-19T10:56:43;2.78;;;1.10;;
74320;SDS011;62738;45.772;4.804;2023-09-19T10:59:15;4.47;;;1.23;;
74320;SDS011;62738;45.772;4.804;2023-09-19T11:07:05;3.75;;;1.02;;
74320;SDS011;62738;45.772;4.804;2023-09-19T11:15:02;2.70;;;1.02;;
74320;SDS011;62738;45.772;4.804;2023-09-19T11:17:34;3.50;;;1.05;;
74320;SDS011;62738;45.772;4.804;2023-09-19T11:30:44;2.97;;;1.13;;
74320;SDS011;62738;45.772;4.804;2023-09-19T11:33:22;1.75;;;0.98;;
74320;SDS011;62738;45.772;4.804;2023-09-19T11:36:02;1.77;;;0.88;;
74320;SDS011;62738;45.772;4.804;2023-09-19T11:46:30;1.88;;;0.95;;
74320;SDS011;62738;45.772;4.804;2023-09-19T11:49:05;2.47;;;1.08;;
74320;SDS011;62738;45.772;4.804;2023-09-19T11:51:41;2.10;;;0.75;;
74320;SDS011;62738;45.772;4.804;2023-09-19T11:54:12;4.15;;;0.93;;
74320;SDS011;62738;45.772;4.804;2023-09-19T11:56:45;1.95;;;0.90;;
74320;SDS011;62738;45.772;4.804;2023-09-19T11:59:22;2.33;;;0.88;;
74320;SDS011;62738;45.772;4.804;2023-09-19T12:01:51;2.58;;;1.00;;
74320;SDS011;62738;45.772;4.804;2023-09-19T12:07:12;3.85;;;1.20;;
74320;SDS011;62738;45.772;4.804;2023-09-19T12:09:45;2.45;;;0.90;;
74320;SDS011;62738;45.772;4.804;2023-09-19T12:12:24;2.40;;;0.90;;
74320;SDS011;62738;45.772;4.804;2023-09-19T12:14:56;2.53;;;0.95;;
74320;SDS011;62738;45.772;4.804;2023-09-19T12:17:39;2.65;;;0.90;;
74320;SDS011;62738;45.772;4.804;2023-09-19T12:20:09;1.02;;;0.68;;
74320;SDS011;62738;45.772;4.804;2023-09-19T12:22:44;1.77;;;1.02;;
74320;SDS011;62738;45.772;4.804;2023-09-19T12:25:13;1.60;;;0.85;;
74320;SDS011;62738;45.772;4.804;2023-09-19T12:27:42;2.22;;;0.85;;
74320;SDS011;62738;45.772;4.804;2023-09-19T12:30:10;4.05;;;0.93;;
74320;SDS011;62738;45.772;4.804;2023-09-19T12:32:53;2.08;;;0.70;;
74320;SDS011;62738;45.772;4.804;2023-09-19T12:37:56;2.20;;;0.90;;
74320;SDS011;62738;45.772;4.804;2023-09-19T12:40:23;2.35;;;0.80;;
74320;SDS011;62738;45.772;4.804;2023-09-19T12:42:56;1.63;;;0.80;;
74320;SDS011;62738;45.772;4.804;2023-09-19T12:45:25;2.28;;;1.02;;
74320;SDS011;62738;45.772;4.804;2023-09-19T12:51:05;1.80;;;0.90;;
74320;SDS011;62738;45.772;4.804;2023-09-19T12:53:38;2.53;;;0.90;;
74320;SDS011;62738;45.772;4.804;2023-09-19T12:56:10;2.53;;;1.10;;
74320;SDS011;62738;45.772;4.804;2023-09-19T13:01:21;2.50;;;0.70;;
74320;SDS011;62738;45.772;4.804;2023-09-19T13:04:11;2.35;;;1.00;;
74320;SDS011;62738;45.772;4.804;2023-09-19T13:06:55;2.30;;;0.70;;
74320;SDS011;62738;45.772;4.804;2023-09-19T13:09:27;1.75;;;0.90;;
74320;SDS011;62738;45.772;4.804;2023-09-19T13:12:16;2.65;;;0.85;;
74320;SDS011;62738;45.772;4.804;2023-09-19T13:15:07;1.90;;;0.90;;
74320;SDS011;62738;45.772;4.804;2023-09-19T13:17:43;1.95;;;0.90;;
74320;SDS011;62738;45.772;4.804;2023-09-19T13:20:21;2.00;;;0.77;;
74320;SDS011;62738;45.772;4.804;2023-09-19T13:22:54;1.92;;;1.10;;
74320;SDS011;62738;45.772;4.804;2023-09-19T13:25:26;1.10;;;0.90;;
74320;SDS011;62738;45.772;4.804;2023-09-19T13:27:56;2.03;;;1.10;;
74320;SDS011;62738;45.772;4.804;2023-09-19T13:30:24;4.28;;;1.17;;
74320;SDS011;62738;45.772;4.804;2023-09-19T13:32:52;2.30;;;1.27;;
74320;SDS011;62738;45.772;4.804;2023-09-19T13:35:31;2.20;;;1.02;;
74320;SDS011;62738;45.772;4.804;2023-09-19T13:37:59;4.53;;;0.82;;
74320;SDS011;62738;45.772;4.804;2023-09-19T13:40:27;2.95;;;1.20;;
74320;SDS011;62738;45.772;4.804;2023-09-19T13:42:57;2.55;;;0.88;;
74320;SDS011;62738;45.772;4.804;2023-09-19T13:45:23;4.55;;;1.02;;
74320;SDS011;62738;45.772;4.804;2023-09-19T13:47:56;2.80;;;0.80;;
74320;SDS011;62738;45.772;4.804;2023-09-19T13:50:24;2.35;;;1.00;;
74320;SDS011;62738;45.772;4.804;2023-09-19T13:52:52;3.03;;;1.00;;
74320;SDS011;62738;45.772;4.804;2023-09-19T13:55:20;1.70;;;1.00;;
74320;SDS011;62738;45.772;4.804;2023-09-19T13:57:47;2.33;;;1.00;;
74320;SDS011;62738;45.772;4.804;2023-09-19T14:00:16;1.65;;;1.00;;
74320;SDS011;62738;45.772;4.804;2023-09-19T14:02:44;2.42;;;1.25;;
74320;SDS011;62738;45.772;4.804;2023-09-19T14:05:12;1.48;;;1.00;;
74320;SDS011;62738;45.772;4.804;2023-09-19T14:07:41;1.25;;;0.90;;
74320;SDS011;62738;45.772;4.804;2023-09-19T14:10:08;1.58;;;0.75;;
74320;SDS011;62738;45.772;4.804;2023-09-19T14:12:39;1.58;;;0.80;;
74320;SDS011;62738;45.772;4.804;2023-09-19T14:15:09;2.28;;;1.00;;
74320;SDS011;62738;45.772;4.804;2023-09-19T14:17:37;2.17;;;0.95;;
74320;SDS011;62738;45.772;4.804;2023-09-19T14:20:04;2.60;;;1.10;;
74320;SDS011;62738;45.772;4.804;2023-09-19T14:22:33;3.08;;;1.00;;
74320;SDS011;62738;45.772;4.804;2023-09-19T14:25:00;1.67;;;0.90;;
74320;SDS011;62738;45.772;4.804;2023-09-19T14:27:27;2.03;;;0.90;;
74320;SDS011;62738;45.772;4.804;2023-09-19T14:29:54;2.50;;;0.90;;
74320;SDS011;62738;45.772;4.804;2023-09-19T14:32:21;2.17;;;0.98;;
74320;SDS011;62738;45.772;4.804;2023-09-19T14:34:48;1.25;;;0.80;;
74320;SDS011;62738;45.772;4.804;2023-09-19T14:37:15;2.88;;;1.05;;
74320;SDS011;62738;45.772;4.804;2023-09-19T14:39:47;2.20;;;0.82;;
74320;SDS011;62738;45.772;4.804;2023-09-19T14:42:14;2.53;;;1.00;;
74320;SDS011;62738;45.772;4.804;2023-09-19T14:44:44;2.38;;;0.93;;
74320;SDS011;62738;45.772;4.804;2023-09-19T14:47:11;2.38;;;0.75;;
74320;SDS011;62738;45.772;4.804;2023-09-19T14:49:40;2.95;;;1.02;;
74320;SDS011;62738;45.772;4.804;2023-09-19T14:52:07;4.55;;;1.02;;
74320;SDS011;62738;45.772;4.804;2023-09-19T14:54:35;2.55;;;0.90;;
74320;SDS011;62738;45.772;4.804;2023-09-19T14:57:04;1.88;;;0.82;;
74320;SDS011;62738;45.772;4.804;2023-09-19T14:59:31;1.92;;;0.82;;
74320;SDS011;62738;45.772;4.804;2023-09-19T15:01:58;2.47;;;0.80;;
74320;SDS011;62738;45.772;4.804;2023-09-19T15:04:26;3.50;;;0.82;;
74320;SDS011;62738;45.772;4.804;2023-09-19T15:06:54;2.17;;;0.85;;
74320;SDS011;62738;45.772;4.804;2023-09-19T15:09:24;2.38;;;0.90;;
74320;SDS011;62738;45.772;4.804;2023-09-19T15:11:53;2.30;;;0.75;;
74320;SDS011;62738;45.772;4.804;2023-09-19T15:14:20;2.22;;;0.90;;
74320;SDS011;62738;45.772;4.804;2023-09-19T15:16:51;2.03;;;0.90;;
74320;SDS011;62738;45.772;4.804;2023-09-19T15:19:19;1.80;;;0.90;;
74320;SDS011;62738;45.772;4.804;2023-09-19T15:21:45;3.15;;;1.10;;
74320;SDS011;62738;45.772;4.804;2023-09-19T15:24:12;1.85;;;0.90;;
74320;SDS011;62738;45.772;4.804;2023-09-19T15:26:39;4.78;;;1.10;;
74320;SDS011;62738;45.772;4.804;2023-09-19T15:29:06;3.88;;;0.88;;
74320;SDS011;62738;45.772;4.804;2023-09-19T15:31:33;3.00;;;1.00;;
74320;SDS011;62738;45.772;4.804;2023-09-19T15:34:00;2.53;;;0.95;;
74320;SDS011;62738;45.772;4.804;2023-09-19T15:36:27;1.85;;;0.95;;
74320;SDS011;62738;45.772;4.804;2023-09-19T15:39:00;2.90;;;1.10;;
74320;SDS011;62738;45.772;4.804;2023-09-19T15:41:33;3.70;;;1.20;;
74320;SDS011;62738;45.772;4.804;2023-09-19T15:44:04;2.58;;;1.20;;
74320;SDS011;62738;45.772;4.804;2023-09-19T15:46:36;2.95;;;1.15;;
74320;SDS011;62738;45.772;4.804;2023-09-19T15:49:04;2.08;;;0.85;;
74320;SDS011;62738;45.772;4.804;2023-09-19T15:51:30;4.07;;;1.00;;
74320;SDS011;62738;45.772;4.804;2023-09-19T15:53:57;4.97;;;1.15;;
74320;SDS011;62738;45.772;4.804;2023-09-19T15:56:26;1.92;;;1.10;;
74320;SDS011;62738;45.772;4.804;2023-09-19T15:58:53;3.38;;;0.95;;
74320;SDS011;62738;45.772;4.804;2023-09-19T16:01:22;3.13;;;0.98;;
74320;SDS011;62738;45.772;4.804;2023-09-19T16:03:49;2.78;;;1.00;;
74320;SDS011;62738;45.772;4.804;2023-09-19T16:06:23;3.58;;;1.20;;
74320;SDS011;62738;45.772;4.804;2023-09-19T16:08:53;4.60;;;1.20;;
74320;SDS011;62738;45.772;4.804;2023-09-19T16:11:28;3.08;;;1.10;;
74320;SDS011;62738;45.772;4.804;2023-09-19T16:13:54;2.53;;;1.08;;
74320;SDS011;62738;45.772;4.804;2023-09-19T16:16:22;2.22;;;1.00;;
74320;SDS011;62738;45.772;4.804;2023-09-19T16:18:53;3.63;;;1.38;;
74320;SDS011;62738;45.772;4.804;2023-09-19T16:21:24;3.50;;;1.00;;